sensor_id;sensor_type;location;lat;lon;timestamp;pressure;altitude;pressure_sealevel;temperature;humidity
15487;BME280;7845;53.698;10.078;2023-05-19T00:00:49;102595.16;;;11.19;100.00
15487;BME280;7845;53.698;10.078;2023-05-19T00:03:15;102596.81;;;11.14;100.00
15487;BME280;7845;53.698;10.078;2023-05-19T00:05:41;102593.91;;;11.00;100.00
15487;BME280;7845;53.698;10.078;2023-05-19T00:08:10;102589.56;;;10.99;100.00
15487;BME280;7845;53.698;10.078;2023-05-19T00:10:37;102600.56;;;10.84;100.00
15487;BME280;7845;53.698;10.078;2023-05-19T00:13:03;102602.69;;;11.03;100.00
15487;BME280;7845;53.698;10.078;2023-05-19T00:15:29;102598.31;;;11.02;100.00
15487;BME280;7845;53.698;10.078;2023-05-19T00:17:54;102603.47;;;10.99;100.00
15487;BME280;7845;53.698;10.078;2023-05-19T00:20:20;102594.78;;;10.99;100.00
15487;BME280;7845;53.698;10.078;2023-05-19T00:22:46;102597.34;;;10.97;100.00
15487;BME280;7845;53.698;10.078;2023-05-19T00:25:11;102593.09;;;11.02;100.00
15487;BME280;7845;53.698;10.078;2023-05-19T00:27:40;102594.78;;;10.99;100.00
15487;BME280;7845;53.698;10.078;2023-05-19T00:30:06;102598.41;;;11.07;100.00
15487;BME280;7845;53.698;10.078;2023-05-19T00:32:31;102589.88;;;11.16;100.00
15487;BME280;7845;53.698;10.078;2023-05-19T00:34:57;102594.09;;;11.09;100.00
15487;BME280;7845;53.698;10.078;2023-05-19T00:37:22;102590.13;;;11.29;100.00
15487;BME280;7845;53.698;10.078;2023-05-19T00:39:47;102580.25;;;11.15;100.00
15487;BME280;7845;53.698;10.078;2023-05-19T00:42:13;102586.06;;;10.98;100.00
15487;BME280;7845;53.698;10.078;2023-05-19T00:44:39;102580.91;;;11.01;100.00
15487;BME280;7845;53.698;10.078;2023-05-19T00:47:06;102574.84;;;11.04;100.00
15487;BME280;7845;53.698;10.078;2023-05-19T00:49:33;102577.41;;;11.02;100.00
15487;BME280;7845;53.698;10.078;2023-05-19T00:52:00;102582.97;;;10.76;100.00
15487;BME280;7845;53.698;10.078;2023-05-19T00:54:26;102585.19;;;10.99;100.00
15487;BME280;7845;53.698;10.078;2023-05-19T00:56:53;102579.16;;;11.02;100.00
15487;BME280;7845;53.698;10.078;2023-05-19T00:59:20;102583.63;;;11.07;100.00
15487;BME280;7845;53.698;10.078;2023-05-19T01:01:47;102578.69;;;10.79;100.00
15487;BME280;7845;53.698;10.078;2023-05-19T01:04:22;102586.72;;;10.88;100.00
15487;BME280;7845;53.698;10.078;2023-05-19T01:06:50;102570.56;;;11.07;100.00
15487;BME280;7845;53.698;10.078;2023-05-19T01:09:20;102574.06;;;11.09;100.00
15487;BME280;7845;53.698;10.078;2023-05-19T01:11:47;102576.75;;;11.14;100.00
15487;BME280;7845;53.698;10.078;2023-05-19T01:14:13;102579.13;;;11.00;100.00
15487;BME280;7845;53.698;10.078;2023-05-19T01:16:42;102574.91;;;11.07;100.00
15487;BME280;7845;53.698;10.078;2023-05-19T01:19:30;102586.00;;;10.97;100.00
15487;BME280;7845;53.698;10.078;2023-05-19T01:25:30;102575.03;;;11.13;100.00
15487;BME280;7845;53.698;10.078;2023-05-19T01:33:05;102586.19;;;11.04;100.00
15487;BME280;7845;53.698;10.078;2023-05-19T01:35:34;102585.59;;;11.21;100.00
15487;BME280;7845;53.698;10.078;2023-05-19T01:38:00;102587.03;;;11.03;100.00
15487;BME280;7845;53.698;10.078;2023-05-19T01:40:29;102588.63;;;10.95;100.00
15487;BME280;7845;53.698;10.078;2023-05-19T01:42:56;102584.53;;;11.09;100.00
15487;BME280;7845;53.698;10.078;2023-05-19T01:45:23;102579.97;;;10.99;100.00
15487;BME280;7845;53.698;10.078;2023-05-19T01:47:52;102580.09;;;11.05;100.00
15487;BME280;7845;53.698;10.078;2023-05-19T01:50:18;102581.88;;;11.08;100.00
15487;BME280;7845;53.698;10.078;2023-05-19T01:52:44;102594.03;;;11.04;100.00
15487;BME280;7845;53.698;10.078;2023-05-19T01:55:09;102593.13;;;11.04;100.00
15487;BME280;7845;53.698;10.078;2023-05-19T01:57:57;102593.31;;;11.15;100.00
15487;BME280;7845;53.698;10.078;2023-05-19T02:00:50;102596.06;;;11.21;100.00
15487;BME280;7845;53.698;10.078;2023-05-19T02:03:34;102598.78;;;11.25;100.00
15487;BME280;7845;53.698;10.078;2023-05-19T02:06:17;102593.59;;;11.28;100.00
15487;BME280;7845;53.698;10.078;2023-05-19T02:11:55;102604.84;;;11.23;100.00
15487;BME280;7845;53.698;10.078;2023-05-19T02:17:29;102600.63;;;11.32;100.00
15487;BME280;7845;53.698;10.078;2023-05-19T02:19:57;102593.56;;;11.27;100.00
15487;BME280;7845;53.698;10.078;2023-05-19T02:22:22;102597.94;;;11.28;100.00
15487;BME280;7845;53.698;10.078;2023-05-19T02:24:49;102592.66;;;11.25;100.00
15487;BME280;7845;53.698;10.078;2023-05-19T02:27:16;102592.03;;;11.38;100.00
15487;BME280;7845;53.698;10.078;2023-05-19T02:29:41;102587.56;;;11.32;100.00
15487;BME280;7845;53.698;10.078;2023-05-19T02:32:06;102590.41;;;11.44;100.00
15487;BME280;7845;53.698;10.078;2023-05-19T02:34:32;102583.47;;;11.46;100.00
15487;BME280;7845;53.698;10.078;2023-05-19T02:36:57;102584.31;;;11.44;100.00
15487;BME280;7845;53.698;10.078;2023-05-19T02:39:22;102595.56;;;11.41;100.00
15487;BME280;7845;53.698;10.078;2023-05-19T02:41:47;102591.75;;;11.23;100.00
15487;BME280;7845;53.698;10.078;2023-05-19T02:44:14;102583.50;;;11.48;100.00
15487;BME280;7845;53.698;10.078;2023-05-19T02:46:39;102586.31;;;11.58;100.00
15487;BME280;7845;53.698;10.078;2023-05-19T02:49:06;102586.94;;;11.47;100.00
15487;BME280;7845;53.698;10.078;2023-05-19T02:51:33;102598.50;;;11.58;100.00
15487;BME280;7845;53.698;10.078;2023-05-19T02:53:58;102590.03;;;11.71;100.00
15487;BME280;7845;53.698;10.078;2023-05-19T02:56:24;102584.91;;;11.77;100.00
15487;BME280;7845;53.698;10.078;2023-05-19T02:58:50;102585.78;;;11.78;100.00
15487;BME280;7845;53.698;10.078;2023-05-19T03:01:16;102580.44;;;11.72;100.00
15487;BME280;7845;53.698;10.078;2023-05-19T03:03:42;102584.56;;;11.59;100.00
15487;BME280;7845;53.698;10.078;2023-05-19T03:06:07;102576.84;;;11.68;100.00
15487;BME280;7845;53.698;10.078;2023-05-19T03:08:34;102572.59;;;11.72;100.00
15487;BME280;7845;53.698;10.078;2023-05-19T03:11:01;102571.06;;;11.84;100.00
15487;BME280;7845;53.698;10.078;2023-05-19T03:13:26;102569.44;;;11.91;100.00
15487;BME280;7845;53.698;10.078;2023-05-19T03:15:51;102575.72;;;12.02;100.00
15487;BME280;7845;53.698;10.078;2023-05-19T03:18:17;102566.13;;;12.02;100.00
15487;BME280;7845;53.698;10.078;2023-05-19T03:20:42;102567.94;;;12.08;100.00
15487;BME280;7845;53.698;10.078;2023-05-19T03:23:09;102560.91;;;12.04;100.00
15487;BME280;7845;53.698;10.078;2023-05-19T03:25:35;102562.38;;;11.87;100.00
15487;BME280;7845;53.698;10.078;2023-05-19T03:28:01;102571.25;;;11.96;100.00
15487;BME280;7845;53.698;10.078;2023-05-19T03:30:26;102578.41;;;11.55;100.00
15487;BME280;7845;53.698;10.078;2023-05-19T03:32:51;102571.81;;;11.76;100.00
15487;BME280;7845;53.698;10.078;2023-05-19T03:35:17;102568.59;;;11.42;100.00
15487;BME280;7845;53.698;10.078;2023-05-19T03:37:42;102581.88;;;11.54;100.00
15487;BME280;7845;53.698;10.078;2023-05-19T03:40:09;102586.09;;;11.48;100.00
15487;BME280;7845;53.698;10.078;2023-05-19T03:42:35;102583.81;;;11.66;100.00
15487;BME280;7845;53.698;10.078;2023-05-19T03:45:01;102582.97;;;11.68;100.00
15487;BME280;7845;53.698;10.078;2023-05-19T03:47:27;102591.16;;;11.39;100.00
15487;BME280;7845;53.698;10.078;2023-05-19T03:49:53;102596.78;;;11.58;100.00
15487;BME280;7845;53.698;10.078;2023-05-19T03:52:18;102588.19;;;11.67;100.00
15487;BME280;7845;53.698;10.078;2023-05-19T03:54:43;102587.94;;;11.53;100.00
15487;BME280;7845;53.698;10.078;2023-05-19T03:57:09;102588.66;;;11.93;100.00
15487;BME280;7845;53.698;10.078;2023-05-19T03:59:37;102593.97;;;11.99;100.00
15487;BME280;7845;53.698;10.078;2023-05-19T04:02:06;102588.84;;;12.05;100.00
15487;BME280;7845;53.698;10.078;2023-05-19T04:04:31;102590.06;;;12.28;100.00
15487;BME280;7845;53.698;10.078;2023-05-19T04:06:57;102596.09;;;12.21;100.00
15487;BME280;7845;53.698;10.078;2023-05-19T04:09:23;102589.31;;;12.37;100.00
15487;BME280;7845;53.698;10.078;2023-05-19T04:11:49;102581.94;;;12.73;100.00
15487;BME280;7845;53.698;10.078;2023-05-19T04:14:14;102578.53;;;12.82;100.00
15487;BME280;7845;53.698;10.078;2023-05-19T04:16:41;102586.22;;;12.65;100.00
15487;BME280;7845;53.698;10.078;2023-05-19T04:19:06;102585.34;;;12.66;100.00
15487;BME280;7845;53.698;10.078;2023-05-19T04:21:33;102594.56;;;12.38;100.00
15487;BME280;7845;53.698;10.078;2023-05-19T04:23:58;102592.09;;;11.92;100.00
15487;BME280;7845;53.698;10.078;2023-05-19T04:26:25;102591.97;;;12.38;100.00
15487;BME280;7845;53.698;10.078;2023-05-19T04:28:51;102596.53;;;12.53;100.00
15487;BME280;7845;53.698;10.078;2023-05-19T04:31:19;102587.22;;;12.74;100.00
15487;BME280;7845;53.698;10.078;2023-05-19T04:33:45;102573.09;;;13.37;100.00
15487;BME280;7845;53.698;10.078;2023-05-19T04:36:12;102570.69;;;13.63;100.00
15487;BME280;7845;53.698;10.078;2023-05-19T04:38:38;102567.47;;;13.97;100.00
15487;BME280;7845;53.698;10.078;2023-05-19T04:41:07;102574.44;;;13.02;100.00
15487;BME280;7845;53.698;10.078;2023-05-19T04:43:35;102572.41;;;13.59;100.00
15487;BME280;7845;53.698;10.078;2023-05-19T04:46:01;102579.16;;;13.33;100.00
15487;BME280;7845;53.698;10.078;2023-05-19T04:48:30;102574.97;;;13.52;100.00
15487;BME280;7845;53.698;10.078;2023-05-19T04:50:57;102580.50;;;13.82;100.00
15487;BME280;7845;53.698;10.078;2023-05-19T04:53:23;102572.56;;;13.77;100.00
15487;BME280;7845;53.698;10.078;2023-05-19T04:55:52;102572.72;;;13.97;100.00
15487;BME280;7845;53.698;10.078;2023-05-19T04:58:20;102568.25;;;13.82;100.00
15487;BME280;7845;53.698;10.078;2023-05-19T05:00:45;102574.38;;;13.84;100.00
15487;BME280;7845;53.698;10.078;2023-05-19T05:03:11;102572.69;;;13.96;100.00
15487;BME280;7845;53.698;10.078;2023-05-19T05:05:38;102574.19;;;13.59;100.00
15487;BME280;7845;53.698;10.078;2023-05-19T05:08:04;102575.28;;;13.88;100.00
15487;BME280;7845;53.698;10.078;2023-05-19T05:10:29;102583.59;;;13.42;100.00
15487;BME280;7845;53.698;10.078;2023-05-19T05:12:54;102577.63;;;13.56;100.00
15487;BME280;7845;53.698;10.078;2023-05-19T05:15:20;102583.19;;;13.91;100.00
15487;BME280;7845;53.698;10.078;2023-05-19T05:17:48;102579.91;;;14.25;100.00
15487;BME280;7845;53.698;10.078;2023-05-19T05:20:14;102576.41;;;14.26;100.00
15487;BME280;7845;53.698;10.078;2023-05-19T05:22:40;102577.41;;;14.36;100.00
15487;BME280;7845;53.698;10.078;2023-05-19T05:25:07;102580.84;;;14.30;100.00
15487;BME280;7845;53.698;10.078;2023-05-19T05:27:32;102582.72;;;14.48;100.00
15487;BME280;7845;53.698;10.078;2023-05-19T05:29:58;102578.03;;;14.08;100.00
15487;BME280;7845;53.698;10.078;2023-05-19T05:32:23;102571.31;;;14.45;100.00
15487;BME280;7845;53.698;10.078;2023-05-19T05:34:49;102577.41;;;14.36;100.00
15487;BME280;7845;53.698;10.078;2023-05-19T05:37:15;102579.13;;;14.37;100.00
15487;BME280;7845;53.698;10.078;2023-05-19T05:39:40;102580.09;;;14.56;100.00
15487;BME280;7845;53.698;10.078;2023-05-19T05:42:06;102580.06;;;14.47;100.00
15487;BME280;7845;53.698;10.078;2023-05-19T05:44:33;102584.44;;;14.46;100.00
15487;BME280;7845;53.698;10.078;2023-05-19T05:47:00;102587.28;;;14.87;100.00
15487;BME280;7845;53.698;10.078;2023-05-19T05:49:28;102569.75;;;14.96;100.00
15487;BME280;7845;53.698;10.078;2023-05-19T05:51:55;102583.78;;;14.92;100.00
15487;BME280;7845;53.698;10.078;2023-05-19T05:54:21;102582.09;;;15.11;100.00
15487;BME280;7845;53.698;10.078;2023-05-19T05:56:47;102586.50;;;15.23;100.00
15487;BME280;7845;53.698;10.078;2023-05-19T05:59:13;102577.81;;;15.74;100.00
15487;BME280;7845;53.698;10.078;2023-05-19T06:01:39;102573.41;;;15.91;100.00
15487;BME280;7845;53.698;10.078;2023-05-19T06:04:06;102571.63;;;15.37;100.00
15487;BME280;7845;53.698;10.078;2023-05-19T06:06:32;102569.88;;;15.92;100.00
15487;BME280;7845;53.698;10.078;2023-05-19T06:08:57;102563.69;;;16.32;100.00
15487;BME280;7845;53.698;10.078;2023-05-19T06:11:22;102564.63;;;15.96;100.00
15487;BME280;7845;53.698;10.078;2023-05-19T06:13:49;102571.63;;;16.14;100.00
15487;BME280;7845;53.698;10.078;2023-05-19T06:16:14;102567.19;;;16.39;100.00
15487;BME280;7845;53.698;10.078;2023-05-19T06:18:39;102564.56;;;16.19;100.00
15487;BME280;7845;53.698;10.078;2023-05-19T06:21:06;102567.25;;;16.09;100.00
15487;BME280;7845;53.698;10.078;2023-05-19T06:23:35;102563.72;;;16.19;100.00
15487;BME280;7845;53.698;10.078;2023-05-19T06:26:02;102552.94;;;16.93;100.00
15487;BME280;7845;53.698;10.078;2023-05-19T06:28:28;102566.31;;;16.28;100.00
15487;BME280;7845;53.698;10.078;2023-05-19T06:30:54;102562.72;;;16.53;100.00
15487;BME280;7845;53.698;10.078;2023-05-19T06:33:19;102551.34;;;16.57;100.00
15487;BME280;7845;53.698;10.078;2023-05-19T06:35:44;102554.84;;;16.57;100.00
15487;BME280;7845;53.698;10.078;2023-05-19T06:38:11;102552.16;;;16.68;100.00
15487;BME280;7845;53.698;10.078;2023-05-19T06:40:36;102545.88;;;16.95;98.05
15487;BME280;7845;53.698;10.078;2023-05-19T06:43:02;102548.63;;;16.78;99.06
15487;BME280;7845;53.698;10.078;2023-05-19T06:45:29;102541.47;;;16.98;97.86
15487;BME280;7845;53.698;10.078;2023-05-19T06:47:54;102540.44;;;17.19;95.80
15487;BME280;7845;53.698;10.078;2023-05-19T06:50:22;102539.41;;;17.38;95.19
15487;BME280;7845;53.698;10.078;2023-05-19T06:52:48;102536.59;;;17.62;92.70
15487;BME280;7845;53.698;10.078;2023-05-19T06:55:13;102536.63;;;17.59;93.07
15487;BME280;7845;53.698;10.078;2023-05-19T06:57:38;102548.19;;;17.43;92.98
15487;BME280;7845;53.698;10.078;2023-05-19T07:00:04;102533.06;;;17.66;91.20
15487;BME280;7845;53.698;10.078;2023-05-19T07:02:33;102534.53;;;17.98;89.90
15487;BME280;7845;53.698;10.078;2023-05-19T07:04:59;102537.13;;;18.04;89.64
15487;BME280;7845;53.698;10.078;2023-05-19T07:07:25;102537.78;;;18.24;89.37
15487;BME280;7845;53.698;10.078;2023-05-19T07:09:52;102537.78;;;18.22;89.09
15487;BME280;7845;53.698;10.078;2023-05-19T07:12:17;102537.81;;;18.19;88.17
15487;BME280;7845;53.698;10.078;2023-05-19T07:14:43;102543.06;;;18.22;89.36
15487;BME280;7845;53.698;10.078;2023-05-19T07:17:09;102540.09;;;18.53;88.08
15487;BME280;7845;53.698;10.078;2023-05-19T07:19:34;102547.41;;;18.30;88.62
15487;BME280;7845;53.698;10.078;2023-05-19T07:22:00;102544.19;;;18.03;89.53
15487;BME280;7845;53.698;10.078;2023-05-19T07:24:26;102554.50;;;17.23;91.25
15487;BME280;7845;53.698;10.078;2023-05-19T07:26:52;102555.09;;;17.64;95.19
15487;BME280;7845;53.698;10.078;2023-05-19T07:29:18;102541.53;;;18.03;90.39
15487;BME280;7845;53.698;10.078;2023-05-19T07:31:43;102540.78;;;17.88;90.64
15487;BME280;7845;53.698;10.078;2023-05-19T07:34:08;102532.28;;;18.42;89.32
15487;BME280;7845;53.698;10.078;2023-05-19T07:36:35;102543.38;;;17.92;88.61
15487;BME280;7845;53.698;10.078;2023-05-19T07:39:03;102537.97;;;18.06;88.36
15487;BME280;7845;53.698;10.078;2023-05-19T07:41:28;102546.09;;;17.83;90.22
15487;BME280;7845;53.698;10.078;2023-05-19T07:43:54;102546.94;;;17.90;89.57
15487;BME280;7845;53.698;10.078;2023-05-19T07:46:19;102540.56;;;18.10;90.08
15487;BME280;7845;53.698;10.078;2023-05-19T07:48:46;102539.78;;;18.78;88.15
15487;BME280;7845;53.698;10.078;2023-05-19T07:51:11;102528.53;;;19.24;84.89
15487;BME280;7845;53.698;10.078;2023-05-19T07:53:38;102532.16;;;18.54;82.86
15487;BME280;7845;53.698;10.078;2023-05-19T07:56:03;102531.44;;;18.39;85.38
15487;BME280;7845;53.698;10.078;2023-05-19T07:58:29;102523.63;;;18.97;83.57
15487;BME280;7845;53.698;10.078;2023-05-19T08:00:58;102529.88;;;18.91;85.10
15487;BME280;7845;53.698;10.078;2023-05-19T08:03:25;102518.25;;;19.03;83.52
15487;BME280;7845;53.698;10.078;2023-05-19T08:05:50;102507.38;;;19.21;81.17
15487;BME280;7845;53.698;10.078;2023-05-19T08:08:16;102510.06;;;19.18;82.80
15487;BME280;7845;53.698;10.078;2023-05-19T08:10:43;102517.84;;;19.30;83.54
15487;BME280;7845;53.698;10.078;2023-05-19T08:13:08;102516.81;;;19.39;85.06
15487;BME280;7845;53.698;10.078;2023-05-19T08:15:35;102522.50;;;19.14;83.00
15487;BME280;7845;53.698;10.078;2023-05-19T08:18:03;102512.38;;;19.42;82.28
15487;BME280;7845;53.698;10.078;2023-05-19T08:20:32;102506.34;;;19.31;79.88
15487;BME280;7845;53.698;10.078;2023-05-19T08:22:58;102514.53;;;19.17;81.13
15487;BME280;7845;53.698;10.078;2023-05-19T08:25:24;102525.59;;;18.09;83.35
15487;BME280;7845;53.698;10.078;2023-05-19T08:27:49;102526.03;;;18.51;86.24
15487;BME280;7845;53.698;10.078;2023-05-19T08:30:14;102524.94;;;18.67;84.59
15487;BME280;7845;53.698;10.078;2023-05-19T08:32:41;102527.31;;;18.87;84.61
15487;BME280;7845;53.698;10.078;2023-05-19T08:35:07;102531.97;;;18.69;85.67
15487;BME280;7845;53.698;10.078;2023-05-19T08:37:33;102526.09;;;18.43;85.11
15487;BME280;7845;53.698;10.078;2023-05-19T08:40:01;102518.97;;;18.50;85.04
15487;BME280;7845;53.698;10.078;2023-05-19T08:42:29;102524.94;;;18.68;85.13
15487;BME280;7845;53.698;10.078;2023-05-19T08:44:54;102522.06;;;18.84;83.99
15487;BME280;7845;53.698;10.078;2023-05-19T08:47:19;102523.06;;;18.75;85.41
15487;BME280;7845;53.698;10.078;2023-05-19T08:49:51;102522.88;;;18.17;85.64
15487;BME280;7845;53.698;10.078;2023-05-19T08:52:50;102516.56;;;18.30;85.14
15487;BME280;7845;53.698;10.078;2023-05-19T08:55:39;102525.53;;;18.14;87.20
15487;BME280;7845;53.698;10.078;2023-05-19T08:58:06;102508.47;;;18.42;87.81
15487;BME280;7845;53.698;10.078;2023-05-19T09:00:32;102518.94;;;18.53;86.57
15487;BME280;7845;53.698;10.078;2023-05-19T09:03:00;102509.06;;;18.67;83.52
15487;BME280;7845;53.698;10.078;2023-05-19T09:05:26;102515.69;;;18.28;86.72
15487;BME280;7845;53.698;10.078;2023-05-19T09:07:52;102510.84;;;18.65;85.69
15487;BME280;7845;53.698;10.078;2023-05-19T09:10:19;102497.13;;;19.00;84.56
15487;BME280;7845;53.698;10.078;2023-05-19T09:12:47;102502.78;;;18.75;87.85
15487;BME280;7845;53.698;10.078;2023-05-19T09:15:15;102500.47;;;19.12;87.27
15487;BME280;7845;53.698;10.078;2023-05-19T09:17:44;102499.97;;;18.86;88.25
15487;BME280;7845;53.698;10.078;2023-05-19T09:20:10;102497.38;;;18.83;87.14
15487;BME280;7845;53.698;10.078;2023-05-19T09:22:42;102519.56;;;18.74;92.16
15487;BME280;7845;53.698;10.078;2023-05-19T09:25:32;102515.94;;;18.80;89.41
15487;BME280;7845;53.698;10.078;2023-05-19T09:27:58;102498.50;;;19.25;87.95
15487;BME280;7845;53.698;10.078;2023-05-19T09:30:23;102508.81;;;18.87;89.30
15487;BME280;7845;53.698;10.078;2023-05-19T09:32:51;102503.34;;;18.97;90.21
15487;BME280;7845;53.698;10.078;2023-05-19T09:35:16;102507.00;;;18.90;88.91
15487;BME280;7845;53.698;10.078;2023-05-19T09:37:44;102499.19;;;18.79;87.45
15487;BME280;7845;53.698;10.078;2023-05-19T09:40:12;102511.00;;;19.15;89.14
15487;BME280;7845;53.698;10.078;2023-05-19T09:42:39;102494.84;;;18.75;86.61
15487;BME280;7845;53.698;10.078;2023-05-19T09:45:06;102486.06;;;19.30;84.50
15487;BME280;7845;53.698;10.078;2023-05-19T09:47:33;102492.31;;;19.24;85.19
15487;BME280;7845;53.698;10.078;2023-05-19T09:50:01;102485.44;;;19.14;83.57
15487;BME280;7845;53.698;10.078;2023-05-19T09:52:27;102479.38;;;19.08;81.17
15487;BME280;7845;53.698;10.078;2023-05-19T09:54:52;102478.09;;;19.31;81.20
15487;BME280;7845;53.698;10.078;2023-05-19T09:57:24;102480.84;;;19.24;82.80
15487;BME280;7845;53.698;10.078;2023-05-19T09:59:53;102477.94;;;19.42;82.23
15487;BME280;7845;53.698;10.078;2023-05-19T10:02:21;102473.84;;;19.23;80.31
15487;BME280;7845;53.698;10.078;2023-05-19T10:04:51;102466.03;;;19.14;79.03
15487;BME280;7845;53.698;10.078;2023-05-19T10:07:18;102481.06;;;19.12;80.37
15487;BME280;7845;53.698;10.078;2023-05-19T10:09:44;102466.00;;;19.15;79.08
15487;BME280;7845;53.698;10.078;2023-05-19T10:12:10;102466.59;;;18.76;81.27
15487;BME280;7845;53.698;10.078;2023-05-19T10:14:37;102459.22;;;18.99;81.68
15487;BME280;7845;53.698;10.078;2023-05-19T10:17:02;102462.28;;;19.27;80.50
15487;BME280;7845;53.698;10.078;2023-05-19T10:19:28;102445.06;;;19.54;78.10
15487;BME280;7845;53.698;10.078;2023-05-19T10:21:55;102455.94;;;19.37;78.26
15487;BME280;7845;53.698;10.078;2023-05-19T10:24:20;102434.13;;;19.72;75.70
15487;BME280;7845;53.698;10.078;2023-05-19T10:26:53;102439.19;;;19.84;74.85
15487;BME280;7845;53.698;10.078;2023-05-19T10:29:33;102432.34;;;19.72;74.11
15487;BME280;7845;53.698;10.078;2023-05-19T10:32:06;102433.72;;;19.47;75.18
15487;BME280;7845;53.698;10.078;2023-05-19T10:35:04;102423.06;;;19.96;74.23
15487;BME280;7845;53.698;10.078;2023-05-19T10:38:07;102415.47;;;20.19;74.35
15487;BME280;7845;53.698;10.078;2023-05-19T10:41:15;102418.59;;;19.98;71.70
15487;BME280;7845;53.698;10.078;2023-05-19T10:44:02;102416.16;;;19.89;70.87
15487;BME280;7845;53.698;10.078;2023-05-19T10:46:32;102411.03;;;19.80;70.20
15487;BME280;7845;53.698;10.078;2023-05-19T10:48:58;102418.06;;;19.81;70.32
15487;BME280;7845;53.698;10.078;2023-05-19T10:51:30;102412.91;;;19.73;68.89
15487;BME280;7845;53.698;10.078;2023-05-19T10:53:56;102407.16;;;19.96;69.14
15487;BME280;7845;53.698;10.078;2023-05-19T10:56:29;102407.09;;;19.99;70.18
15487;BME280;7845;53.698;10.078;2023-05-19T10:58:57;102400.34;;;20.27;69.56
15487;BME280;7845;53.698;10.078;2023-05-19T11:01:29;102408.78;;;20.02;69.76
15487;BME280;7845;53.698;10.078;2023-05-19T11:03:55;102406.94;;;20.07;68.52
15487;BME280;7845;53.698;10.078;2023-05-19T11:06:28;102415.09;;;19.98;68.67
15487;BME280;7845;53.698;10.078;2023-05-19T11:09:03;102412.63;;;19.88;69.55
15487;BME280;7845;53.698;10.078;2023-05-19T11:11:51;102406.50;;;19.83;70.06
15487;BME280;7845;53.698;10.078;2023-05-19T11:14:19;102401.50;;;19.70;68.50
15487;BME280;7845;53.698;10.078;2023-05-19T11:16:49;102385.81;;;20.43;68.13
15487;BME280;7845;53.698;10.078;2023-05-19T11:19:24;102384.31;;;20.32;69.05
15487;BME280;7845;53.698;10.078;2023-05-19T11:21:51;102390.91;;;20.53;69.21
15487;BME280;7845;53.698;10.078;2023-05-19T11:24:47;102378.78;;;20.42;66.04
15487;BME280;7845;53.698;10.078;2023-05-19T11:27:28;102366.94;;;20.57;64.19
15487;BME280;7845;53.698;10.078;2023-05-19T11:29:56;102375.16;;;20.82;65.89
15487;BME280;7845;53.698;10.078;2023-05-19T11:32:31;102373.06;;;20.59;66.14
15487;BME280;7845;53.698;10.078;2023-05-19T11:35:00;102370.97;;;21.09;66.02
15487;BME280;7845;53.698;10.078;2023-05-19T11:37:26;102360.91;;;21.53;64.73
15487;BME280;7845;53.698;10.078;2023-05-19T11:39:55;102360.16;;;21.16;63.26
15487;BME280;7845;53.698;10.078;2023-05-19T11:42:20;102364.25;;;21.29;63.59
15487;BME280;7845;53.698;10.078;2023-05-19T11:44:46;102376.53;;;20.63;66.69
15487;BME280;7845;53.698;10.078;2023-05-19T11:47:15;102360.31;;;20.75;65.42
15487;BME280;7845;53.698;10.078;2023-05-19T11:49:51;102371.19;;;21.35;64.86
15487;BME280;7845;53.698;10.078;2023-05-19T11:52:23;102346.72;;;21.22;61.44
15487;BME280;7845;53.698;10.078;2023-05-19T11:54:49;102349.16;;;21.62;60.78
15487;BME280;7845;53.698;10.078;2023-05-19T11:57:14;102349.59;;;21.47;60.40
15487;BME280;7845;53.698;10.078;2023-05-19T11:59:40;102360.66;;;21.63;62.44
15487;BME280;7845;53.698;10.078;2023-05-19T12:04:39;102354.66;;;21.56;61.63
15487;BME280;7845;53.698;10.078;2023-05-19T12:07:05;102352.56;;;21.67;60.82
15487;BME280;7845;53.698;10.078;2023-05-19T12:09:31;102347.72;;;21.81;58.99
15487;BME280;7845;53.698;10.078;2023-05-19T12:11:56;102349.81;;;22.30;58.91
15487;BME280;7845;53.698;10.078;2023-05-19T12:14:25;102345.53;;;21.95;58.79
15487;BME280;7845;53.698;10.078;2023-05-19T12:16:51;102344.69;;;22.24;57.52
15487;BME280;7845;53.698;10.078;2023-05-19T12:19:17;102329.56;;;22.52;56.10
15487;BME280;7845;53.698;10.078;2023-05-19T12:21:43;102326.53;;;22.65;56.59
15487;BME280;7845;53.698;10.078;2023-05-19T12:24:09;102329.50;;;22.28;56.81
15487;BME280;7845;53.698;10.078;2023-05-19T12:26:35;102327.16;;;21.88;55.58
15487;BME280;7845;53.698;10.078;2023-05-19T12:29:05;102322.19;;;22.07;54.37
15487;BME280;7845;53.698;10.078;2023-05-19T12:31:32;102316.75;;;22.37;54.26
15487;BME280;7845;53.698;10.078;2023-05-19T12:33:59;102320.22;;;21.82;54.70
15487;BME280;7845;53.698;10.078;2023-05-19T12:36:25;102313.53;;;21.98;53.12
15487;BME280;7845;53.698;10.078;2023-05-19T12:38:53;102314.03;;;22.11;53.11
15487;BME280;7845;53.698;10.078;2023-05-19T12:41:19;102289.72;;;22.49;50.63
15487;BME280;7845;53.698;10.078;2023-05-19T12:43:45;102314.66;;;22.47;53.20
15487;BME280;7845;53.698;10.078;2023-05-19T12:46:11;102314.19;;;22.34;52.39
15487;BME280;7845;53.698;10.078;2023-05-19T12:48:44;102302.41;;;22.43;50.94
15487;BME280;7845;53.698;10.078;2023-05-19T12:51:15;102282.00;;;22.42;47.53
15487;BME280;7845;53.698;10.078;2023-05-19T12:53:40;102274.84;;;22.44;47.34
15487;BME280;7845;53.698;10.078;2023-05-19T12:56:13;102293.06;;;22.30;49.44
15487;BME280;7845;53.698;10.078;2023-05-19T12:58:40;102302.31;;;21.87;50.14
15487;BME280;7845;53.698;10.078;2023-05-19T13:01:06;102300.88;;;22.34;50.16
15487;BME280;7845;53.698;10.078;2023-05-19T13:03:41;102297.78;;;22.48;50.86
15487;BME280;7845;53.698;10.078;2023-05-19T13:06:07;102295.84;;;22.79;51.84